Bankersmith, Texas
Current Conditions -  °F | °C
As of 4:55 PM on Tuesday 21 Oct 2014 (Local Time) from KT82 Reporting Station
Clear Clear  
Wind Chill: 25°   Ceiling: Unl
Heat Index: 26°   Visibility: 10mi
Dew Point: 12°   Wind: 0mph
Humidity: 45%   Direction: NA
Pressure: 30.02"   Gusts: NA
Location:  30.3069°N, 98.8978°W
Report Text: KT82 212155Z AUTO 00000KT 10SM CLR 25/12 A3002 RMK AO2 T02450120
Loading
Personal Weather Stations






























Interactive Weather Map
Tropical Storm Tracking
New forecast layout! Learn more

10-Day Weather Forecast

Advertisements
Track Severe Weather on mobile